Derbent, Russia
Current Conditions -  °F | °C
As of 12:30 PM on Wednesday 22 Oct 2014 (Local Time) from URML Reporting Station
Scattered Clouds Scattered Clouds  
Wind Chill: 64°   Ceiling: Unl
Heat Index: 64°   Visibility: 6mi
Dew Point: 48°   Wind: 20mph
Humidity: 56%   Direction: 160°SSE
Pressure: 29.77"   Gusts: NA
Location:  42.06°N, 48.29°E
Report Text: URML 220930Z 16009MPS 9999 SCT100 18/09 Q1008 NOSIG RMKQFE756/1008
Loading
Personal Weather Stations






























Interactive Weather Map
Tropical Storm Tracking
New forecast layout! Learn more

10-Day Weather Forecast

Advertisements
Track Severe Weather on mobile